createdAt,value
2023-02-04T00:00:15.781Z,2.2
2023-02-04T00:02:56.422Z,2.2
2023-02-04T00:05:27.340Z,2.1
2023-02-04T00:07:58.068Z,2.1
2023-02-04T00:10:29.659Z,2.2
2023-02-04T00:13:00.549Z,2.0
2023-02-04T00:15:41.427Z,2.0
2023-02-04T00:18:12.245Z,2.0
2023-02-04T00:20:42.911Z,2.0
2023-02-04T00:23:13.523Z,2.0
2023-02-04T00:25:44.133Z,2.0
2023-02-04T00:28:14.816Z,2.0
2023-02-04T00:30:55.496Z,2.0
2023-02-04T00:33:26.311Z,2.0
2023-02-04T00:38:26.947Z,2.1
2023-02-04T00:40:57.808Z,2.1
2023-02-04T00:43:28.406Z,1.9
2023-02-04T00:46:09.091Z,1.8
2023-02-04T00:48:39.734Z,1.9
2023-02-04T00:51:10.411Z,1.9
2023-02-04T00:53:41.013Z,1.8
2023-02-04T00:56:11.626Z,1.9
2023-02-04T00:58:42.236Z,1.9
2023-02-04T01:01:22.915Z,1.9
2023-02-04T01:03:53.534Z,1.8
2023-02-04T01:06:24.194Z,1.9
2023-02-04T01:08:54.845Z,1.7
2023-02-04T01:11:25.515Z,1.6
2023-02-04T01:13:56.134Z,1.7
2023-02-04T01:19:06.827Z,1.7
2023-02-04T01:21:38.460Z,1.6
2023-02-04T01:24:09.655Z,1.7
2023-02-04T01:26:40.272Z,1.6
2023-02-04T01:29:20.894Z,1.7
2023-02-04T01:31:51.582Z,1.5
2023-02-04T01:34:22.339Z,1.7
2023-02-04T01:36:52.963Z,1.6
2023-02-04T01:39:23.582Z,1.6
2023-02-04T01:41:54.210Z,1.5
2023-02-04T01:44:34.879Z,1.7
2023-02-04T01:47:05.496Z,1.7
2023-02-04T01:49:36.097Z,1.7
2023-02-04T01:52:06.747Z,1.7
2023-02-04T01:54:47.367Z,1.7
2023-02-04T01:59:57.992Z,1.5
2023-02-04T02:02:28.675Z,1.7
2023-02-04T02:04:59.408Z,1.7
2023-02-04T02:07:30.028Z,1.6
2023-02-04T02:10:00.685Z,1.6
2023-02-04T02:12:31.301Z,1.7
2023-02-04T02:15:11.915Z,1.7
2023-02-04T02:17:42.521Z,1.6
2023-02-04T02:20:13.141Z,1.7
2023-02-04T02:22:44.023Z,1.8
2023-02-04T02:25:14.662Z,1.8
2023-02-04T02:27:55.295Z,1.8
2023-02-04T02:30:26.162Z,1.8
2023-02-04T02:32:56.940Z,1.9
2023-02-04T02:35:27.597Z,1.9
2023-02-04T02:40:28.473Z,2.0
2023-02-04T02:43:09.308Z,2.0
2023-02-04T02:45:39.936Z,2.0
2023-02-04T02:48:10.654Z,2.0
2023-02-04T02:50:41.376Z,1.9
2023-02-04T02:53:12.018Z,2.1
2023-02-04T02:55:42.623Z,2.1
2023-02-04T02:58:23.225Z,2.1
2023-02-04T03:00:54.055Z,2.1
2023-02-04T03:03:24.832Z,2.1
2023-02-04T03:05:55.467Z,2.1
2023-02-04T03:08:26.099Z,2.0
2023-02-04T03:10:56.731Z,2.1
2023-02-04T03:13:37.368Z,2.3
2023-02-04T03:16:08.080Z,2.3
2023-02-04T03:21:08.768Z,2.3
2023-02-04T03:23:39.385Z,2.2
2023-02-04T03:26:20.021Z,2.2
2023-02-04T03:28:50.627Z,2.1
2023-02-04T03:31:21.321Z,2.1
2023-02-04T03:33:52.251Z,2.1
2023-02-04T03:36:22.899Z,2.0
2023-02-04T03:38:53.502Z,2.0
2023-02-04T03:41:34.149Z,1.8
2023-02-04T03:44:04.757Z,1.9
2023-02-04T03:46:35.437Z,1.8
2023-02-04T03:49:06.110Z,1.7
2023-02-04T03:51:36.749Z,1.7
2023-02-04T03:54:07.356Z,1.8
2023-02-04T03:56:48.063Z,1.9
2023-02-04T04:01:48.726Z,1.8
2023-02-04T04:04:19.402Z,1.9
2023-02-04T04:06:50.082Z,1.9
2023-02-04T04:09:20.686Z,1.9
2023-02-04T04:12:01.309Z,1.9
2023-02-04T04:14:31.928Z,1.9
2023-02-04T04:17:02.558Z,1.9
2023-02-04T04:19:33.158Z,1.9
2023-02-04T04:22:03.892Z,1.7
2023-02-04T04:24:34.506Z,1.7
2023-02-04T04:27:15.130Z,1.7
2023-02-04T04:29:45.744Z,1.8
2023-02-04T04:32:16.406Z,1.9
2023-02-04T04:34:47.049Z,1.8
2023-02-04T04:37:17.680Z,1.7
2023-02-04T04:42:28.286Z,1.8
2023-02-04T04:45:08.924Z,1.7
2023-02-04T04:47:39.575Z,1.7
2023-02-04T04:50:10.217Z,1.7
2023-02-04T04:52:41.306Z,1.6
2023-02-04T04:55:21.928Z,1.6
2023-02-04T04:57:52.574Z,1.5
2023-02-04T05:00:23.244Z,1.5
2023-02-04T05:02:44.400Z,1.5
2023-02-04T05:05:25.134Z,1.5
2023-02-04T05:07:55.747Z,1.4
2023-02-04T05:10:36.382Z,1.4
2023-02-04T05:13:07.014Z,1.3
2023-02-04T05:15:37.626Z,1.3
2023-02-04T05:18:08.271Z,1.3
2023-02-04T05:23:18.881Z,1.5
2023-02-04T05:25:49.517Z,1.4
2023-02-04T05:28:21.496Z,1.4
2023-02-04T05:30:52.180Z,1.5
2023-02-04T05:33:23.011Z,1.4
2023-02-04T05:35:53.636Z,1.4
2023-02-04T05:38:34.243Z,1.5
2023-02-04T05:41:04.881Z,1.5
2023-02-04T05:43:35.499Z,1.5
2023-02-04T05:46:06.190Z,1.4
2023-02-04T05:48:36.878Z,1.5
2023-02-04T05:51:07.505Z,1.5
2023-02-04T05:53:48.113Z,1.4
2023-02-04T05:56:18.751Z,1.4
2023-02-04T05:58:49.371Z,1.3
2023-02-04T06:03:50.006Z,1.2
2023-02-04T06:06:20.886Z,1.2
2023-02-04T06:09:01.536Z,1.2
2023-02-04T06:11:32.153Z,1.2
2023-02-04T06:14:02.752Z,1.2
2023-02-04T06:16:33.397Z,1.1
2023-02-04T06:19:04.303Z,1.1
2023-02-04T06:21:34.928Z,1.0
2023-02-04T06:24:15.524Z,1.1
2023-02-04T06:26:46.205Z,1.0
2023-02-04T06:29:16.823Z,1.0
2023-02-04T06:31:47.624Z,0.9
2023-02-04T06:34:18.475Z,0.9
2023-02-04T06:36:59.113Z,0.9
2023-02-04T06:39:29.715Z,0.7
2023-02-04T06:44:30.361Z,0.7
2023-02-04T06:47:01.011Z,0.7
2023-02-04T06:49:31.641Z,0.8
2023-02-04T06:52:12.287Z,0.7
2023-02-04T06:54:42.925Z,0.7
2023-02-04T06:57:13.575Z,0.7
2023-02-04T06:59:44.174Z,0.7
2023-02-04T07:02:14.814Z,0.7
2023-02-04T07:04:47.478Z,0.6
2023-02-04T07:07:28.391Z,0.6
2023-02-04T07:09:59.012Z,0.6
2023-02-04T07:12:29.669Z,0.6
2023-02-04T07:15:00.291Z,0.7
2023-02-04T07:17:30.933Z,0.6
2023-02-04T07:20:01.563Z,0.6
2023-02-04T07:25:12.198Z,0.7
2023-02-04T07:27:42.832Z,0.5
2023-02-04T07:30:13.588Z,0.3
2023-02-04T07:32:44.888Z,-0.1
2023-02-04T07:35:15.503Z,-0.3
2023-02-04T07:37:56.345Z,-0.5
2023-02-04T07:40:26.980Z,-0.5
2023-02-04T07:42:57.825Z,-0.6
2023-02-04T07:45:28.462Z,-0.8
2023-02-04T07:47:59.074Z,-0.9
2023-02-04T07:50:29.817Z,-0.8
2023-02-04T07:53:10.508Z,-0.8
2023-02-04T07:55:41.117Z,-0.8
2023-02-04T07:58:11.746Z,-0.8
2023-02-04T08:00:42.375Z,-0.7
2023-02-04T08:05:43.026Z,-0.6
2023-02-04T08:08:23.632Z,-0.6
2023-02-04T08:10:54.259Z,-0.6
2023-02-04T08:13:24.902Z,-0.5
2023-02-04T08:15:55.606Z,-0.4
2023-02-04T08:18:26.386Z,-0.4
2023-02-04T08:21:07.030Z,-0.4
2023-02-04T08:23:39.782Z,-0.5
2023-02-04T08:26:10.429Z,-0.4
2023-02-04T08:28:41.073Z,-0.4
2023-02-04T08:31:11.898Z,-0.3
2023-02-04T08:33:42.881Z,-0.4
2023-02-04T08:36:23.508Z,-0.3
2023-02-04T08:38:54.139Z,-0.2
2023-02-04T08:46:24.875Z,0.1
2023-02-04T08:48:55.806Z,0.1
2023-02-04T08:51:36.428Z,0.2
2023-02-04T08:54:07.057Z,0.3
2023-02-04T08:56:38.055Z,0.4
2023-02-04T08:59:08.714Z,0.4
2023-02-04T09:01:39.391Z,0.4
2023-02-04T09:04:11.620Z,0.3
2023-02-04T09:06:52.253Z,0.4
2023-02-04T09:09:23.959Z,0.3
2023-02-04T09:11:55.427Z,0.3
2023-02-04T09:14:26.048Z,0.2
2023-02-04T09:16:56.693Z,0.2
2023-02-04T09:19:37.304Z,0.2
2023-02-04T09:22:07.918Z,0.3
2023-02-04T09:27:08.538Z,0.4
2023-02-04T09:29:39.142Z,0.5
2023-02-04T09:32:09.831Z,0.6
2023-02-04T09:34:50.478Z,0.6
2023-02-04T09:37:21.089Z,0.7
2023-02-04T09:39:51.702Z,0.7
2023-02-04T09:42:22.348Z,0.7
2023-02-04T09:44:52.945Z,0.7
2023-02-04T09:47:23.604Z,0.7
2023-02-04T09:50:04.231Z,0.9
2023-02-04T09:52:34.836Z,0.9
2023-02-04T09:55:05.429Z,1.0
2023-02-04T09:57:36.021Z,1.0
2023-02-04T10:00:07.342Z,1.1
2023-02-04T10:02:38.486Z,1.1
2023-02-04T10:07:49.097Z,1.1
2023-02-04T10:10:19.785Z,1.1
2023-02-04T10:12:50.760Z,1.2
2023-02-04T10:15:21.365Z,1.2
2023-02-04T10:18:01.969Z,1.3
2023-02-04T10:20:32.890Z,1.2
2023-02-04T10:23:03.672Z,1.2
2023-02-04T10:25:34.289Z,1.2
2023-02-04T10:28:04.945Z,1.2
2023-02-04T10:30:36.142Z,1.2
2023-02-04T10:33:17.181Z,1.2
2023-02-04T10:35:47.904Z,1.3
2023-02-04T10:38:18.525Z,1.4
2023-02-04T10:40:49.152Z,1.5
2023-02-04T10:43:19.776Z,1.7
2023-02-04T10:48:30.432Z,1.8
2023-02-04T10:51:01.059Z,1.8
2023-02-04T10:53:31.689Z,1.9
2023-02-04T10:56:12.323Z,2.0
2023-02-04T10:58:42.963Z,2.0
2023-02-04T11:01:13.612Z,2.0
2023-02-04T11:03:54.395Z,1.9
2023-02-04T11:06:25.029Z,1.8
2023-02-04T11:08:55.642Z,1.6
2023-02-04T11:11:26.355Z,1.7
2023-02-04T11:13:56.986Z,1.9
2023-02-04T11:16:37.608Z,1.8
2023-02-04T11:19:08.237Z,1.8
2023-02-04T11:21:38.846Z,1.8
2023-02-04T11:24:09.466Z,1.9
2023-02-04T11:29:10.128Z,1.9
2023-02-04T11:31:50.908Z,2.0
2023-02-04T11:34:21.776Z,1.9
2023-02-04T11:36:52.409Z,2.0
2023-02-04T11:39:23.032Z,1.9
2023-02-04T11:41:53.710Z,2.1
2023-02-04T11:44:24.340Z,2.3
2023-02-04T11:47:05.003Z,2.4
2023-02-04T11:49:35.607Z,2.6
2023-02-04T11:52:06.229Z,2.8
2023-02-04T11:54:36.856Z,3.0
2023-02-04T11:57:07.481Z,3.1
2023-02-04T11:59:38.132Z,3.0
2023-02-04T12:02:18.822Z,2.8
2023-02-04T12:04:49.557Z,2.8
2023-02-04T12:09:50.201Z,2.7
2023-02-04T12:12:21.087Z,2.7
2023-02-04T12:15:01.726Z,2.8
2023-02-04T12:17:32.348Z,3.0
2023-02-04T12:20:03.044Z,3.1
2023-02-04T12:22:33.734Z,3.4
2023-02-04T12:25:04.366Z,3.4
2023-02-04T12:27:34.974Z,3.3
2023-02-04T12:30:15.710Z,3.5
2023-02-04T12:32:46.303Z,3.3
2023-02-04T12:35:16.910Z,3.0
2023-02-04T12:37:47.578Z,3.1
2023-02-04T12:40:18.210Z,3.1
2023-02-04T12:42:48.880Z,3.0
2023-02-04T12:45:29.737Z,2.9
2023-02-04T12:50:30.435Z,2.9
2023-02-04T12:53:01.068Z,2.8
2023-02-04T12:55:31.989Z,2.8
2023-02-04T12:58:02.822Z,2.8
2023-02-04T13:00:43.504Z,2.9
2023-02-04T13:03:14.882Z,2.7
2023-02-04T13:05:45.521Z,2.9
2023-02-04T13:08:16.131Z,2.9
2023-02-04T13:10:46.760Z,2.8
2023-02-04T13:13:17.424Z,2.7
2023-02-04T13:15:58.103Z,2.6
2023-02-04T13:18:28.888Z,2.6
2023-02-04T13:20:59.543Z,2.6
2023-02-04T13:23:30.154Z,2.6
2023-02-04T13:26:00.802Z,2.7
2023-02-04T13:31:11.468Z,2.7
2023-02-04T13:33:42.191Z,2.8
2023-02-04T13:36:12.832Z,2.8
2023-02-04T13:38:43.477Z,2.9
2023-02-04T13:43:54.109Z,2.9
2023-02-04T13:46:24.766Z,2.8
2023-02-04T13:48:55.387Z,2.7
2023-02-04T13:51:25.995Z,2.7
2023-02-04T13:53:56.600Z,2.7
2023-02-04T13:56:27.224Z,2.7
2023-02-04T13:59:07.819Z,2.6
2023-02-04T14:01:40.599Z,2.5
2023-02-04T14:04:11.299Z,2.5
2023-02-04T14:06:41.927Z,2.6
2023-02-04T14:11:52.579Z,2.6
2023-02-04T14:14:23.221Z,2.6
2023-02-04T14:16:54.007Z,2.5
2023-02-04T14:19:24.694Z,2.5
2023-02-04T14:21:55.323Z,2.5
2023-02-04T14:24:25.935Z,2.4
2023-02-04T14:27:06.573Z,2.4
2023-02-04T14:29:37.219Z,2.4
2023-02-04T14:32:07.836Z,2.4
2023-02-04T14:34:38.483Z,2.4
2023-02-04T14:37:19.095Z,2.6
2023-02-04T14:39:49.706Z,2.9
2023-02-04T14:42:30.329Z,3.3
2023-02-04T14:45:00.947Z,3.3
2023-02-04T14:47:31.545Z,3.6
2023-02-04T14:52:32.182Z,3.9
2023-02-04T14:55:02.811Z,3.8
2023-02-04T14:57:43.533Z,4.0
2023-02-04T15:00:14.299Z,4.1
2023-02-04T15:02:45.495Z,4.1
2023-02-04T15:05:16.147Z,4.3
2023-02-04T15:07:46.780Z,4.3
2023-02-04T15:10:17.437Z,4.4
2023-02-04T15:12:58.560Z,4.5
2023-02-04T15:15:29.192Z,4.2
2023-02-04T15:17:59.964Z,3.9
2023-02-04T15:20:30.890Z,3.5
2023-02-04T15:23:01.669Z,3.2
2023-02-04T15:25:42.400Z,3.0
2023-02-04T15:28:13.025Z,2.8
2023-02-04T15:33:13.701Z,2.7
2023-02-04T15:35:44.363Z,2.7
2023-02-04T15:38:15.020Z,2.8
2023-02-04T15:40:55.733Z,2.7
2023-02-04T15:43:26.336Z,2.6
2023-02-04T15:45:56.983Z,2.3
2023-02-04T15:48:27.739Z,2.2
2023-02-04T15:50:58.334Z,2.1
2023-02-04T15:53:28.973Z,1.9
2023-02-04T15:56:09.696Z,1.9
2023-02-04T15:58:40.316Z,1.9
2023-02-04T16:01:12.712Z,1.7
2023-02-04T16:03:43.477Z,1.7
2023-02-04T16:06:14.105Z,1.7
2023-02-04T16:08:44.733Z,1.5
2023-02-04T16:13:55.365Z,1.4
2023-02-04T16:16:26.006Z,1.3
2023-02-04T16:18:56.645Z,1.2
2023-02-04T16:21:27.270Z,1.2
2023-02-04T16:24:07.872Z,1.1
2023-02-04T16:26:38.480Z,1.0
2023-02-04T16:29:09.100Z,1.0
2023-02-04T16:31:39.775Z,0.9
2023-02-04T16:34:10.667Z,0.9
2023-02-04T16:36:41.282Z,0.8
2023-02-04T16:39:21.881Z,0.7
2023-02-04T16:41:52.512Z,0.7
2023-02-04T16:44:23.106Z,0.6
2023-02-04T16:46:53.745Z,0.6
2023-02-04T16:49:24.362Z,0.5
2023-02-04T16:54:35.004Z,0.3
2023-02-04T16:57:05.650Z,0.0
2023-02-04T16:59:36.268Z,-0.3
2023-02-04T17:02:06.992Z,-0.5
2023-02-04T17:04:37.676Z,-0.6
2023-02-04T17:07:08.366Z,-0.8
2023-02-04T17:09:48.992Z,-0.9
2023-02-04T17:12:19.626Z,-1.1
2023-02-04T17:14:50.240Z,-1.4
2023-02-04T17:17:20.867Z,-1.7
2023-02-04T17:19:51.462Z,-1.9
2023-02-04T17:22:22.074Z,-2.2
2023-02-04T17:25:02.676Z,-2.4
2023-02-04T17:27:33.313Z,-2.6
2023-02-04T17:30:04.123Z,-2.8
2023-02-04T17:35:04.842Z,-3.1
2023-02-04T17:37:45.461Z,-3.2
2023-02-04T17:40:16.100Z,-3.3
2023-02-04T17:42:47.582Z,-3.4
2023-02-04T17:45:18.208Z,-3.5
2023-02-04T17:47:48.862Z,-3.6
2023-02-04T17:50:19.520Z,-3.6
2023-02-04T17:53:00.690Z,-3.6
2023-02-04T17:55:31.542Z,-3.7
2023-02-04T17:58:02.358Z,-3.7
2023-02-04T18:00:33.182Z,-3.8
2023-02-04T18:03:04.634Z,-3.9
2023-02-04T18:05:36.476Z,-3.8
2023-02-04T18:08:17.250Z,-3.8
2023-02-04T18:10:47.889Z,-3.7
2023-02-04T18:15:48.534Z,-3.7
2023-02-04T18:18:19.285Z,-3.7
2023-02-04T18:20:49.925Z,-3.7
2023-02-04T18:23:30.569Z,-3.7
2023-02-04T18:26:01.199Z,-3.8
2023-02-04T18:28:31.814Z,-3.9
2023-02-04T18:31:02.482Z,-4.0
2023-02-04T18:33:33.754Z,-4.1
2023-02-04T18:36:04.389Z,-4.2
2023-02-04T18:38:45.010Z,-4.2
2023-02-04T18:41:15.720Z,-4.2
2023-02-04T18:43:46.633Z,-4.1
2023-02-04T18:46:17.677Z,-4.1
2023-02-04T18:48:48.394Z,-4.1
2023-02-04T18:51:29.010Z,-4.2
2023-02-04T18:56:29.691Z,-4.3
2023-02-04T18:59:00.294Z,-4.3
2023-02-04T19:01:31.121Z,-4.5
2023-02-04T19:04:01.834Z,-4.5
2023-02-04T19:06:42.618Z,-4.6
2023-02-04T19:09:13.517Z,-4.7
2023-02-04T19:11:44.228Z,-4.7
2023-02-04T19:14:14.830Z,-4.8
2023-02-04T19:16:45.586Z,-4.9
2023-02-04T19:19:16.671Z,-4.9
2023-02-04T19:21:57.697Z,-4.9
2023-02-04T19:24:28.396Z,-4.9
2023-02-04T19:26:59.022Z,-4.9
2023-02-04T19:29:29.647Z,-5.0
2023-02-04T19:32:00.313Z,-5.2
2023-02-04T19:37:11.366Z,-5.4
2023-02-04T19:39:42.067Z,-5.4
2023-02-04T19:42:12.709Z,-5.4
2023-02-04T19:44:43.314Z,-5.2
2023-02-04T19:47:14.609Z,-5.2
2023-02-04T19:49:55.305Z,-5.2
2023-02-04T19:52:25.926Z,-5.3
2023-02-04T19:54:56.605Z,-5.4
2023-02-04T19:57:27.240Z,-5.4
2023-02-04T19:59:57.859Z,-5.5
2023-02-04T20:02:28.531Z,-5.4
2023-02-04T20:05:09.306Z,-5.5
2023-02-04T20:07:39.957Z,-5.5
2023-02-04T20:10:10.620Z,-5.7
2023-02-04T20:12:41.281Z,-5.8
2023-02-04T20:18:01.909Z,-5.8
2023-02-04T20:20:32.547Z,-5.7
2023-02-04T20:22:55.784Z,-5.6
2023-02-04T20:25:26.400Z,-5.6
2023-02-04T20:27:57.409Z,-5.8
2023-02-04T20:30:28.181Z,-5.8
2023-02-04T20:33:08.939Z,-5.8
2023-02-04T20:35:39.551Z,-5.9
2023-02-04T20:38:10.225Z,-5.9
2023-02-04T20:40:40.876Z,-6.0
2023-02-04T20:43:11.472Z,-6.0
2023-02-04T20:45:42.123Z,-6.1
2023-02-04T20:48:22.907Z,-6.0
2023-02-04T20:50:53.547Z,-6.0
2023-02-04T20:53:24.171Z,-6.1
2023-02-04T20:58:24.834Z,-5.9
2023-02-04T21:00:55.494Z,-5.9
2023-02-04T21:03:36.302Z,-5.8
2023-02-04T21:06:06.933Z,-5.9
2023-02-04T21:08:37.546Z,-6.0
2023-02-04T21:11:08.193Z,-6.1
2023-02-04T21:13:48.803Z,-6.1
2023-02-04T21:16:29.445Z,-6.2
2023-02-04T21:19:00.090Z,-6.2
2023-02-04T21:21:30.733Z,-6.3
2023-02-04T21:24:01.347Z,-6.4
2023-02-04T21:26:31.968Z,-6.4
2023-02-04T21:29:02.617Z,-6.4
2023-02-04T21:31:43.278Z,-6.4
2023-02-04T21:34:13.990Z,-6.4
2023-02-04T21:39:14.623Z,-6.5
2023-02-04T21:41:45.303Z,-6.6
2023-02-04T21:44:15.902Z,-6.7
2023-02-04T21:46:56.521Z,-6.6
2023-02-04T21:49:27.141Z,-6.6
2023-02-04T21:51:51.143Z,-6.7
2023-02-04T21:54:21.896Z,-6.7
2023-02-04T21:56:52.550Z,-6.6
2023-02-04T22:02:13.165Z,-6.8
2023-02-04T22:04:43.816Z,-6.8
2023-02-04T22:07:14.477Z,-6.9
2023-02-04T22:09:45.100Z,-7.0
2023-02-04T22:12:15.740Z,-7.1
2023-02-04T22:14:56.357Z,-7.0
2023-02-04T22:19:56.994Z,-7.0
2023-02-04T22:22:27.647Z,-7.0
2023-02-04T22:24:58.300Z,-7.0
2023-02-04T22:27:28.948Z,-7.0
2023-02-04T22:30:09.687Z,-7.1
2023-02-04T22:32:40.527Z,-7.1
2023-02-04T22:35:11.157Z,-7.1
2023-02-04T22:37:42.098Z,-7.1
2023-02-04T22:40:12.696Z,-7.2
2023-02-04T22:42:43.343Z,-7.2
2023-02-04T22:45:23.983Z,-7.3
2023-02-04T22:47:54.972Z,-7.4
2023-02-04T22:50:25.648Z,-7.4
2023-02-04T22:52:56.263Z,-7.4
2023-02-04T22:55:26.919Z,-7.4
2023-02-04T23:00:37.704Z,-7.2
2023-02-04T23:03:08.427Z,-7.2
2023-02-04T23:05:39.054Z,-7.3
2023-02-04T23:08:09.711Z,-7.3
2023-02-04T23:10:40.320Z,-7.4
2023-02-04T23:13:20.968Z,-7.4
2023-02-04T23:15:51.686Z,-7.4
2023-02-04T23:18:22.396Z,-7.3
2023-02-04T23:20:53.034Z,-7.4
2023-02-04T23:23:23.641Z,-7.4
2023-02-04T23:25:54.279Z,-7.5
2023-02-04T23:28:34.886Z,-7.5
2023-02-04T23:31:05.544Z,-7.5
2023-02-04T23:33:36.363Z,-7.6
2023-02-04T23:36:06.981Z,-7.6
2023-02-04T23:41:07.604Z,-7.8
2023-02-04T23:43:48.210Z,-7.8
2023-02-04T23:46:18.912Z,-7.8
2023-02-04T23:48:49.535Z,-7.7
2023-02-04T23:51:20.234Z,-7.7
2023-02-04T23:53:50.853Z,-7.7
2023-02-04T23:56:21.473Z,-7.4
2023-02-04T23:59:02.122Z,-7.4
